sensor_id;sensor_type;location;lat;lon;timestamp;temperature;humidity
48579;DHT22;34357;51.948;6.132;2023-05-17T00:02:11;8.30;87.20
48579;DHT22;34357;51.948;6.132;2023-05-17T00:04:37;8.30;87.30
48579;DHT22;34357;51.948;6.132;2023-05-17T00:07:03;8.30;87.40
48579;DHT22;34357;51.948;6.132;2023-05-17T00:09:29;8.30;87.60
48579;DHT22;34357;51.948;6.132;2023-05-17T00:11:54;8.20;87.60
48579;DHT22;34357;51.948;6.132;2023-05-17T00:14:20;8.30;87.80
48579;DHT22;34357;51.948;6.132;2023-05-17T00:16:46;8.20;88.00
48579;DHT22;34357;51.948;6.132;2023-05-17T00:19:11;8.20;88.10
48579;DHT22;34357;51.948;6.132;2023-05-17T00:21:37;8.30;88.20
48579;DHT22;34357;51.948;6.132;2023-05-17T00:24:03;8.30;88.20
48579;DHT22;34357;51.948;6.132;2023-05-17T00:26:29;8.30;88.20
48579;DHT22;34357;51.948;6.132;2023-05-17T00:28:55;8.30;88.30
48579;DHT22;34357;51.948;6.132;2023-05-17T00:31:20;8.20;88.50
48579;DHT22;34357;51.948;6.132;2023-05-17T00:33:46;8.30;88.60
48579;DHT22;34357;51.948;6.132;2023-05-17T00:36:12;8.30;88.60
48579;DHT22;34357;51.948;6.132;2023-05-17T00:38:38;8.20;88.60
48579;DHT22;34357;51.948;6.132;2023-05-17T00:41:04;8.30;88.70
48579;DHT22;34357;51.948;6.132;2023-05-17T00:43:30;8.30;88.70
48579;DHT22;34357;51.948;6.132;2023-05-17T00:45:55;8.20;88.80
48579;DHT22;34357;51.948;6.132;2023-05-17T00:48:21;8.20;88.80
48579;DHT22;34357;51.948;6.132;2023-05-17T00:50:51;8.30;89.00
48579;DHT22;34357;51.948;6.132;2023-05-17T00:53:17;8.20;88.90
48579;DHT22;34357;51.948;6.132;2023-05-17T00:55:43;8.30;88.90
48579;DHT22;34357;51.948;6.132;2023-05-17T00:58:13;8.20;88.90
48579;DHT22;34357;51.948;6.132;2023-05-17T01:00:39;8.20;88.90
48579;DHT22;34357;51.948;6.132;2023-05-17T01:03:05;8.20;89.00
48579;DHT22;34357;51.948;6.132;2023-05-17T01:05:31;8.20;89.00
48579;DHT22;34357;51.948;6.132;2023-05-17T01:07:57;8.10;89.00
48579;DHT22;34357;51.948;6.132;2023-05-17T01:16:07;8.20;89.50
48579;DHT22;34357;51.948;6.132;2023-05-17T01:18:47;8.20;89.50
48579;DHT22;34357;51.948;6.132;2023-05-17T01:21:38;8.10;89.50
48579;DHT22;34357;51.948;6.132;2023-05-17T01:27:13;8.20;89.40
48579;DHT22;34357;51.948;6.132;2023-05-17T01:29:42;8.10;89.50
48579;DHT22;34357;51.948;6.132;2023-05-17T01:32:09;8.10;89.60
48579;DHT22;34357;51.948;6.132;2023-05-17T01:34:35;8.10;89.60
48579;DHT22;34357;51.948;6.132;2023-05-17T01:37:02;8.10;89.60
48579;DHT22;34357;51.948;6.132;2023-05-17T01:39:29;8.00;89.70
48579;DHT22;34357;51.948;6.132;2023-05-17T01:42:06;8.10;89.80
48579;DHT22;34357;51.948;6.132;2023-05-17T01:45:05;8.10;89.70
48579;DHT22;34357;51.948;6.132;2023-05-17T01:50:07;8.00;90.00
48579;DHT22;34357;51.948;6.132;2023-05-17T01:52:37;8.00;89.90
48579;DHT22;34357;51.948;6.132;2023-05-17T01:57:56;8.00;90.00
48579;DHT22;34357;51.948;6.132;2023-05-17T02:00:24;8.10;90.00
48579;DHT22;34357;51.948;6.132;2023-05-17T02:02:52;8.20;90.10
48579;DHT22;34357;51.948;6.132;2023-05-17T02:05:19;8.20;90.20
48579;DHT22;34357;51.948;6.132;2023-05-17T02:07:45;8.20;90.30
48579;DHT22;34357;51.948;6.132;2023-05-17T02:10:11;8.30;90.20
48579;DHT22;34357;51.948;6.132;2023-05-17T02:12:42;8.30;90.30
48579;DHT22;34357;51.948;6.132;2023-05-17T02:15:08;8.30;90.10
48579;DHT22;34357;51.948;6.132;2023-05-17T02:17:37;8.40;90.30
48579;DHT22;34357;51.948;6.132;2023-05-17T02:20:06;8.50;90.10
48579;DHT22;34357;51.948;6.132;2023-05-17T02:22:32;8.60;90.00
48579;DHT22;34357;51.948;6.132;2023-05-17T02:24:58;8.50;90.00
48579;DHT22;34357;51.948;6.132;2023-05-17T02:27:23;8.60;90.10
48579;DHT22;34357;51.948;6.132;2023-05-17T02:29:49;8.70;89.90
48579;DHT22;34357;51.948;6.132;2023-05-17T02:32:15;8.60;89.90
48579;DHT22;34357;51.948;6.132;2023-05-17T02:34:41;8.70;89.80
48579;DHT22;34357;51.948;6.132;2023-05-17T02:37:06;8.70;89.80
48579;DHT22;34357;51.948;6.132;2023-05-17T02:39:32;8.70;89.90
48579;DHT22;34357;51.948;6.132;2023-05-17T02:41:58;8.70;89.90
48579;DHT22;34357;51.948;6.132;2023-05-17T02:44:24;8.70;89.80
48579;DHT22;34357;51.948;6.132;2023-05-17T02:46:52;8.80;89.80
48579;DHT22;34357;51.948;6.132;2023-05-17T02:49:17;8.80;89.60
48579;DHT22;34357;51.948;6.132;2023-05-17T02:51:43;8.80;89.60
48579;DHT22;34357;51.948;6.132;2023-05-17T02:54:09;8.70;89.60
48579;DHT22;34357;51.948;6.132;2023-05-17T02:56:35;8.70;89.50
48579;DHT22;34357;51.948;6.132;2023-05-17T02:59:01;8.70;89.60
48579;DHT22;34357;51.948;6.132;2023-05-17T03:01:27;8.70;89.60
48579;DHT22;34357;51.948;6.132;2023-05-17T03:03:53;8.70;89.40
48579;DHT22;34357;51.948;6.132;2023-05-17T03:06:20;8.60;89.60
48579;DHT22;34357;51.948;6.132;2023-05-17T03:08:46;8.60;89.70
48579;DHT22;34357;51.948;6.132;2023-05-17T03:11:12;8.60;89.70
48579;DHT22;34357;51.948;6.132;2023-05-17T03:13:37;8.50;89.80
48579;DHT22;34357;51.948;6.132;2023-05-17T03:16:04;8.50;90.00
48579;DHT22;34357;51.948;6.132;2023-05-17T03:18:30;8.40;90.00
48579;DHT22;34357;51.948;6.132;2023-05-17T03:20:56;8.40;90.00
48579;DHT22;34357;51.948;6.132;2023-05-17T03:23:22;8.40;90.00
48579;DHT22;34357;51.948;6.132;2023-05-17T03:25:55;8.30;90.10
48579;DHT22;34357;51.948;6.132;2023-05-17T03:28:20;8.30;90.10
48579;DHT22;34357;51.948;6.132;2023-05-17T03:30:47;8.30;90.20
48579;DHT22;34357;51.948;6.132;2023-05-17T03:33:14;8.30;90.20
48579;DHT22;34357;51.948;6.132;2023-05-17T03:35:40;8.30;90.20
48579;DHT22;34357;51.948;6.132;2023-05-17T03:38:06;8.30;90.30
48579;DHT22;34357;51.948;6.132;2023-05-17T03:40:31;8.30;90.30
48579;DHT22;34357;51.948;6.132;2023-05-17T03:42:58;8.20;90.30
48579;DHT22;34357;51.948;6.132;2023-05-17T03:45:26;8.30;90.30
48579;DHT22;34357;51.948;6.132;2023-05-17T03:47:51;8.30;90.40
48579;DHT22;34357;51.948;6.132;2023-05-17T03:50:17;8.30;90.50
48579;DHT22;34357;51.948;6.132;2023-05-17T03:52:44;8.40;90.60
48579;DHT22;34357;51.948;6.132;2023-05-17T03:55:10;8.30;90.50
48579;DHT22;34357;51.948;6.132;2023-05-17T03:57:36;8.30;90.50
48579;DHT22;34357;51.948;6.132;2023-05-17T04:00:02;8.20;90.50
48579;DHT22;34357;51.948;6.132;2023-05-17T04:02:40;8.30;90.50
48579;DHT22;34357;51.948;6.132;2023-05-17T04:05:07;8.30;90.40
48579;DHT22;34357;51.948;6.132;2023-05-17T04:07:33;8.40;90.40
48579;DHT22;34357;51.948;6.132;2023-05-17T04:09:59;8.30;90.30
48579;DHT22;34357;51.948;6.132;2023-05-17T04:12:28;8.40;90.20
48579;DHT22;34357;51.948;6.132;2023-05-17T04:14:53;8.30;90.10
48579;DHT22;34357;51.948;6.132;2023-05-17T04:17:19;8.20;90.00
48579;DHT22;34357;51.948;6.132;2023-05-17T04:19:46;8.20;90.00
48579;DHT22;34357;51.948;6.132;2023-05-17T04:22:13;8.20;90.10
48579;DHT22;34357;51.948;6.132;2023-05-17T04:24:38;8.20;90.00
48579;DHT22;34357;51.948;6.132;2023-05-17T04:27:04;8.10;90.10
48579;DHT22;34357;51.948;6.132;2023-05-17T04:29:32;8.10;90.10
48579;DHT22;34357;51.948;6.132;2023-05-17T04:31:58;8.10;90.10
48579;DHT22;34357;51.948;6.132;2023-05-17T04:34:24;8.10;90.20
48579;DHT22;34357;51.948;6.132;2023-05-17T04:36:51;8.20;90.20
48579;DHT22;34357;51.948;6.132;2023-05-17T04:39:18;8.20;90.30
48579;DHT22;34357;51.948;6.132;2023-05-17T04:41:44;8.30;90.20
48579;DHT22;34357;51.948;6.132;2023-05-17T04:44:11;8.40;90.30
48579;DHT22;34357;51.948;6.132;2023-05-17T04:46:37;8.50;90.30
48579;DHT22;34357;51.948;6.132;2023-05-17T04:49:03;8.70;90.10
48579;DHT22;34357;51.948;6.132;2023-05-17T04:51:29;8.80;90.00
48579;DHT22;34357;51.948;6.132;2023-05-17T04:53:56;8.90;89.90
48579;DHT22;34357;51.948;6.132;2023-05-17T04:56:26;9.00;90.00
48579;DHT22;34357;51.948;6.132;2023-05-17T04:58:52;9.10;89.70
48579;DHT22;34357;51.948;6.132;2023-05-17T05:01:18;9.20;89.20
48579;DHT22;34357;51.948;6.132;2023-05-17T05:03:44;9.40;89.20
48579;DHT22;34357;51.948;6.132;2023-05-17T05:06:11;9.50;88.90
48579;DHT22;34357;51.948;6.132;2023-05-17T05:08:37;9.50;88.60
48579;DHT22;34357;51.948;6.132;2023-05-17T05:11:05;9.60;88.00
48579;DHT22;34357;51.948;6.132;2023-05-17T05:13:31;9.60;87.20
48579;DHT22;34357;51.948;6.132;2023-05-17T05:15:56;9.60;87.30
48579;DHT22;34357;51.948;6.132;2023-05-17T05:18:23;9.60;87.10
48579;DHT22;34357;51.948;6.132;2023-05-17T05:20:49;9.60;87.10
48579;DHT22;34357;51.948;6.132;2023-05-17T05:23:16;9.50;87.20
48579;DHT22;34357;51.948;6.132;2023-05-17T05:25:44;9.50;87.10
48579;DHT22;34357;51.948;6.132;2023-05-17T05:28:11;9.50;87.00
48579;DHT22;34357;51.948;6.132;2023-05-17T05:30:38;9.50;86.80
48579;DHT22;34357;51.948;6.132;2023-05-17T05:33:05;9.50;86.80
48579;DHT22;34357;51.948;6.132;2023-05-17T05:35:30;9.60;86.80
48579;DHT22;34357;51.948;6.132;2023-05-17T05:37:57;9.60;86.50
48579;DHT22;34357;51.948;6.132;2023-05-17T05:40:23;9.70;86.60
48579;DHT22;34357;51.948;6.132;2023-05-17T05:42:49;9.70;86.60
48579;DHT22;34357;51.948;6.132;2023-05-17T05:45:15;9.70;86.20
48579;DHT22;34357;51.948;6.132;2023-05-17T05:47:43;9.90;86.20
48579;DHT22;34357;51.948;6.132;2023-05-17T05:50:09;10.00;85.40
48579;DHT22;34357;51.948;6.132;2023-05-17T05:52:36;10.10;85.00
48579;DHT22;34357;51.948;6.132;2023-05-17T05:55:02;10.20;85.10
48579;DHT22;34357;51.948;6.132;2023-05-17T05:57:28;10.20;84.70
48579;DHT22;34357;51.948;6.132;2023-05-17T05:59:54;10.30;84.30
48579;DHT22;34357;51.948;6.132;2023-05-17T06:02:20;10.50;84.00
48579;DHT22;34357;51.948;6.132;2023-05-17T06:04:46;10.60;83.30
48579;DHT22;34357;51.948;6.132;2023-05-17T06:07:13;10.70;81.50
48579;DHT22;34357;51.948;6.132;2023-05-17T06:09:39;10.80;81.80
48579;DHT22;34357;51.948;6.132;2023-05-17T06:12:05;10.90;81.50
48579;DHT22;34357;51.948;6.132;2023-05-17T06:14:31;11.10;80.80
48579;DHT22;34357;51.948;6.132;2023-05-17T06:16:56;11.00;80.00
48579;DHT22;34357;51.948;6.132;2023-05-17T06:19:22;11.00;80.20
48579;DHT22;34357;51.948;6.132;2023-05-17T06:21:48;11.00;78.90
48579;DHT22;34357;51.948;6.132;2023-05-17T06:24:14;11.10;78.40
48579;DHT22;34357;51.948;6.132;2023-05-17T06:26:41;11.20;78.20
48579;DHT22;34357;51.948;6.132;2023-05-17T06:29:09;11.30;76.40
48579;DHT22;34357;51.948;6.132;2023-05-17T06:31:34;11.40;77.30
48579;DHT22;34357;51.948;6.132;2023-05-17T06:34:00;11.30;74.60
48579;DHT22;34357;51.948;6.132;2023-05-17T06:36:26;11.20;74.80
48579;DHT22;34357;51.948;6.132;2023-05-17T06:38:52;11.30;72.70
48579;DHT22;34357;51.948;6.132;2023-05-17T06:41:17;11.40;71.80
48579;DHT22;34357;51.948;6.132;2023-05-17T06:43:44;11.50;72.40
48579;DHT22;34357;51.948;6.132;2023-05-17T06:46:10;11.90;71.00
48579;DHT22;34357;51.948;6.132;2023-05-17T06:48:36;12.30;69.70
48579;DHT22;34357;51.948;6.132;2023-05-17T06:51:01;12.60;68.40
48579;DHT22;34357;51.948;6.132;2023-05-17T06:53:27;12.90;67.40
48579;DHT22;34357;51.948;6.132;2023-05-17T06:55:53;13.10;67.10
48579;DHT22;34357;51.948;6.132;2023-05-17T06:58:19;13.30;64.80
48579;DHT22;34357;51.948;6.132;2023-05-17T07:00:45;13.30;65.40
48579;DHT22;34357;51.948;6.132;2023-05-17T07:03:10;13.60;66.20
48579;DHT22;34357;51.948;6.132;2023-05-17T07:05:36;13.90;64.50
48579;DHT22;34357;51.948;6.132;2023-05-17T07:08:02;14.20;62.40
48579;DHT22;34357;51.948;6.132;2023-05-17T07:10:28;14.20;63.00
48579;DHT22;34357;51.948;6.132;2023-05-17T07:12:53;14.30;61.90
48579;DHT22;34357;51.948;6.132;2023-05-17T07:15:19;14.50;61.00
48579;DHT22;34357;51.948;6.132;2023-05-17T07:17:45;14.80;59.90
48579;DHT22;34357;51.948;6.132;2023-05-17T07:20:11;14.50;60.00
48579;DHT22;34357;51.948;6.132;2023-05-17T07:22:37;14.90;59.10
48579;DHT22;34357;51.948;6.132;2023-05-17T07:25:04;15.20;58.90
48579;DHT22;34357;51.948;6.132;2023-05-17T07:27:29;15.40;55.90
48579;DHT22;34357;51.948;6.132;2023-05-17T07:29:55;15.10;58.80
48579;DHT22;34357;51.948;6.132;2023-05-17T07:32:21;15.80;57.10
48579;DHT22;34357;51.948;6.132;2023-05-17T07:34:47;15.80;55.40
48579;DHT22;34357;51.948;6.132;2023-05-17T07:37:12;15.30;56.70
48579;DHT22;34357;51.948;6.132;2023-05-17T07:39:38;14.80;57.30
48579;DHT22;34357;51.948;6.132;2023-05-17T07:42:04;14.60;58.40
48579;DHT22;34357;51.948;6.132;2023-05-17T07:44:30;14.50;57.50
48579;DHT22;34357;51.948;6.132;2023-05-17T07:46:56;14.70;58.40
48579;DHT22;34357;51.948;6.132;2023-05-17T07:49:22;14.80;58.70
48579;DHT22;34357;51.948;6.132;2023-05-17T07:51:48;15.10;55.50
48579;DHT22;34357;51.948;6.132;2023-05-17T07:54:24;15.00;56.00
48579;DHT22;34357;51.948;6.132;2023-05-17T07:56:54;15.50;55.00
48579;DHT22;34357;51.948;6.132;2023-05-17T07:59:21;15.30;55.00
48579;DHT22;34357;51.948;6.132;2023-05-17T08:01:47;14.90;56.60
48579;DHT22;34357;51.948;6.132;2023-05-17T08:04:12;15.40;56.10
48579;DHT22;34357;51.948;6.132;2023-05-17T08:06:39;15.80;55.30
48579;DHT22;34357;51.948;6.132;2023-05-17T08:09:06;15.60;55.10
48579;DHT22;34357;51.948;6.132;2023-05-17T08:11:31;14.80;56.00
48579;DHT22;34357;51.948;6.132;2023-05-17T08:13:59;14.00;57.00
48579;DHT22;34357;51.948;6.132;2023-05-17T08:16:25;14.40;59.00
48579;DHT22;34357;51.948;6.132;2023-05-17T08:18:51;14.80;56.30
48579;DHT22;34357;51.948;6.132;2023-05-17T08:21:17;14.70;56.20
48579;DHT22;34357;51.948;6.132;2023-05-17T08:23:43;14.80;56.00
48579;DHT22;34357;51.948;6.132;2023-05-17T08:26:08;15.30;54.00
48579;DHT22;34357;51.948;6.132;2023-05-17T08:28:34;15.20;54.70
48579;DHT22;34357;51.948;6.132;2023-05-17T08:31:02;15.30;55.70
48579;DHT22;34357;51.948;6.132;2023-05-17T08:33:28;15.90;54.50
48579;DHT22;34357;51.948;6.132;2023-05-17T08:35:54;15.90;52.20
48579;DHT22;34357;51.948;6.132;2023-05-17T08:38:22;15.60;52.70
48579;DHT22;34357;51.948;6.132;2023-05-17T08:40:54;15.10;52.40
48579;DHT22;34357;51.948;6.132;2023-05-17T08:43:22;15.00;53.90
48579;DHT22;34357;51.948;6.132;2023-05-17T08:45:49;15.50;54.90
48579;DHT22;34357;51.948;6.132;2023-05-17T08:48:15;16.30;54.20
48579;DHT22;34357;51.948;6.132;2023-05-17T08:50:49;16.40;51.80
48579;DHT22;34357;51.948;6.132;2023-05-17T08:53:16;16.60;50.20
48579;DHT22;34357;51.948;6.132;2023-05-17T08:55:46;16.70;49.30
48579;DHT22;34357;51.948;6.132;2023-05-17T08:58:26;16.30;50.10
48579;DHT22;34357;51.948;6.132;2023-05-17T09:00:53;16.40;50.40
48579;DHT22;34357;51.948;6.132;2023-05-17T09:03:21;15.80;51.40
48579;DHT22;34357;51.948;6.132;2023-05-17T09:05:51;15.50;51.00
48579;DHT22;34357;51.948;6.132;2023-05-17T09:08:21;15.90;51.40
48579;DHT22;34357;51.948;6.132;2023-05-17T09:10:48;15.60;53.20
48579;DHT22;34357;51.948;6.132;2023-05-17T09:13:14;16.30;49.10
48579;DHT22;34357;51.948;6.132;2023-05-17T09:15:58;16.70;49.50
48579;DHT22;34357;51.948;6.132;2023-05-17T09:18:30;16.40;49.10
48579;DHT22;34357;51.948;6.132;2023-05-17T09:21:01;15.80;51.20
48579;DHT22;34357;51.948;6.132;2023-05-17T09:23:30;16.10;51.20
48579;DHT22;34357;51.948;6.132;2023-05-17T09:26:03;16.40;50.80
48579;DHT22;34357;51.948;6.132;2023-05-17T09:28:36;17.00;48.20
48579;DHT22;34357;51.948;6.132;2023-05-17T09:31:06;17.50;47.00
48579;DHT22;34357;51.948;6.132;2023-05-17T09:33:54;17.40;46.40
48579;DHT22;34357;51.948;6.132;2023-05-17T09:36:21;16.80;49.50
48579;DHT22;34357;51.948;6.132;2023-05-17T09:38:59;16.80;49.80
48579;DHT22;34357;51.948;6.132;2023-05-17T09:41:55;16.90;48.40
48579;DHT22;34357;51.948;6.132;2023-05-17T09:44:21;17.10;47.50
48579;DHT22;34357;51.948;6.132;2023-05-17T09:46:47;16.40;46.50
48579;DHT22;34357;51.948;6.132;2023-05-17T09:49:14;16.10;48.40
48579;DHT22;34357;51.948;6.132;2023-05-17T09:51:45;16.70;46.00
48579;DHT22;34357;51.948;6.132;2023-05-17T09:54:11;17.00;47.70
48579;DHT22;34357;51.948;6.132;2023-05-17T09:56:38;17.50;46.70
48579;DHT22;34357;51.948;6.132;2023-05-17T09:59:13;17.50;44.90
48579;DHT22;34357;51.948;6.132;2023-05-17T10:01:40;17.40;45.10
48579;DHT22;34357;51.948;6.132;2023-05-17T10:04:09;17.50;43.60
48579;DHT22;34357;51.948;6.132;2023-05-17T10:06:37;17.60;44.70
48579;DHT22;34357;51.948;6.132;2023-05-17T10:09:05;17.10;43.50
48579;DHT22;34357;51.948;6.132;2023-05-17T10:11:31;17.00;46.60
48579;DHT22;34357;51.948;6.132;2023-05-17T10:14:25;17.20;43.30
48579;DHT22;34357;51.948;6.132;2023-05-17T10:16:53;17.20;44.30
48579;DHT22;34357;51.948;6.132;2023-05-17T10:19:19;17.40;42.80
48579;DHT22;34357;51.948;6.132;2023-05-17T10:21:47;17.80;43.40
48579;DHT22;34357;51.948;6.132;2023-05-17T10:24:15;18.10;41.80
48579;DHT22;34357;51.948;6.132;2023-05-17T10:26:42;18.00;42.00
48579;DHT22;34357;51.948;6.132;2023-05-17T10:29:08;17.40;43.20
48579;DHT22;34357;51.948;6.132;2023-05-17T10:31:34;17.40;44.10
48579;DHT22;34357;51.948;6.132;2023-05-17T10:34:02;17.40;44.30
48579;DHT22;34357;51.948;6.132;2023-05-17T10:36:29;16.90;44.50
48579;DHT22;34357;51.948;6.132;2023-05-17T10:38:55;17.40;43.80
48579;DHT22;34357;51.948;6.132;2023-05-17T10:41:24;17.40;43.90
48579;DHT22;34357;51.948;6.132;2023-05-17T10:43:51;17.60;44.40
48579;DHT22;34357;51.948;6.132;2023-05-17T10:46:18;17.90;41.80
48579;DHT22;34357;51.948;6.132;2023-05-17T10:48:51;18.00;45.60
48579;DHT22;34357;51.948;6.132;2023-05-17T10:51:35;18.00;40.90
48579;DHT22;34357;51.948;6.132;2023-05-17T10:54:08;17.70;41.90
48579;DHT22;34357;51.948;6.132;2023-05-17T10:56:39;17.70;42.40
48579;DHT22;34357;51.948;6.132;2023-05-17T10:59:23;17.90;42.50
48579;DHT22;34357;51.948;6.132;2023-05-17T11:02:06;18.00;42.10
48579;DHT22;34357;51.948;6.132;2023-05-17T11:12:35;17.90;41.80
48579;DHT22;34357;51.948;6.132;2023-05-17T11:15:06;17.40;42.80
48579;DHT22;34357;51.948;6.132;2023-05-17T11:17:46;17.60;43.70
48579;DHT22;34357;51.948;6.132;2023-05-17T11:25:28;18.00;40.90
48579;DHT22;34357;51.948;6.132;2023-05-17T11:27:54;17.80;44.00
48579;DHT22;34357;51.948;6.132;2023-05-17T11:30:30;17.70;42.30
48579;DHT22;34357;51.948;6.132;2023-05-17T11:33:03;17.90;43.60
48579;DHT22;34357;51.948;6.132;2023-05-17T11:35:34;17.90;42.60
48579;DHT22;34357;51.948;6.132;2023-05-17T11:38:17;17.90;42.20
48579;DHT22;34357;51.948;6.132;2023-05-17T11:40:44;17.70;42.80
48579;DHT22;34357;51.948;6.132;2023-05-17T11:43:19;17.60;43.30
48579;DHT22;34357;51.948;6.132;2023-05-17T11:45:48;17.50;43.30
48579;DHT22;34357;51.948;6.132;2023-05-17T11:48:16;17.90;41.40
48579;DHT22;34357;51.948;6.132;2023-05-17T11:50:44;17.90;43.20
48579;DHT22;34357;51.948;6.132;2023-05-17T11:53:10;18.00;42.60
48579;DHT22;34357;51.948;6.132;2023-05-17T11:55:44;17.90;42.10
48579;DHT22;34357;51.948;6.132;2023-05-17T11:58:16;17.80;42.30
48579;DHT22;34357;51.948;6.132;2023-05-17T12:00:43;17.90;42.00
48579;DHT22;34357;51.948;6.132;2023-05-17T12:06:07;17.70;42.00
48579;DHT22;34357;51.948;6.132;2023-05-17T12:08:39;17.90;44.10
48579;DHT22;34357;51.948;6.132;2023-05-17T12:11:10;17.80;42.20
48579;DHT22;34357;51.948;6.132;2023-05-17T12:13:37;17.80;43.10
48579;DHT22;34357;51.948;6.132;2023-05-17T12:16:14;17.80;42.50
48579;DHT22;34357;51.948;6.132;2023-05-17T12:18:50;17.90;43.10
48579;DHT22;34357;51.948;6.132;2023-05-17T12:21:16;17.90;42.00
48579;DHT22;34357;51.948;6.132;2023-05-17T12:23:46;17.80;41.40
48579;DHT22;34357;51.948;6.132;2023-05-17T12:26:20;17.60;42.40
48579;DHT22;34357;51.948;6.132;2023-05-17T12:28:57;17.60;42.30
48579;DHT22;34357;51.948;6.132;2023-05-17T12:31:35;17.70;43.20
48579;DHT22;34357;51.948;6.132;2023-05-17T12:34:05;17.80;43.30
48579;DHT22;34357;51.948;6.132;2023-05-17T12:36:31;17.80;42.70
48579;DHT22;34357;51.948;6.132;2023-05-17T12:39:02;17.50;42.20
48579;DHT22;34357;51.948;6.132;2023-05-17T12:41:31;17.50;42.40
48579;DHT22;34357;51.948;6.132;2023-05-17T12:43:57;17.50;42.90
48579;DHT22;34357;51.948;6.132;2023-05-17T12:46:23;17.60;42.20
48579;DHT22;34357;51.948;6.132;2023-05-17T12:48:50;17.70;40.90
48579;DHT22;34357;51.948;6.132;2023-05-17T12:51:20;17.70;43.10
48579;DHT22;34357;51.948;6.132;2023-05-17T12:53:57;17.70;42.00
48579;DHT22;34357;51.948;6.132;2023-05-17T12:56:27;17.90;43.30
48579;DHT22;34357;51.948;6.132;2023-05-17T12:59:22;17.70;42.10
48579;DHT22;34357;51.948;6.132;2023-05-17T13:01:52;17.70;44.30
48579;DHT22;34357;51.948;6.132;2023-05-17T13:04:23;17.70;42.50
48579;DHT22;34357;51.948;6.132;2023-05-17T13:06:55;17.50;41.40
48579;DHT22;34357;51.948;6.132;2023-05-17T13:09:23;17.70;41.90
48579;DHT22;34357;51.948;6.132;2023-05-17T13:11:50;17.90;42.00
48579;DHT22;34357;51.948;6.132;2023-05-17T13:14:36;17.80;41.10
48579;DHT22;34357;51.948;6.132;2023-05-17T13:17:16;17.40;41.70
48579;DHT22;34357;51.948;6.132;2023-05-17T13:19:43;17.40;44.80
48579;DHT22;34357;51.948;6.132;2023-05-17T13:22:09;17.30;42.70
48579;DHT22;34357;51.948;6.132;2023-05-17T13:24:36;17.30;42.30
48579;DHT22;34357;51.948;6.132;2023-05-17T13:27:03;17.20;41.70
48579;DHT22;34357;51.948;6.132;2023-05-17T13:29:30;17.20;42.50
48579;DHT22;34357;51.948;6.132;2023-05-17T13:31:56;17.40;41.50
48579;DHT22;34357;51.948;6.132;2023-05-17T13:34:22;17.50;42.50
48579;DHT22;34357;51.948;6.132;2023-05-17T13:36:47;17.70;40.90
48579;DHT22;34357;51.948;6.132;2023-05-17T13:39:14;17.70;41.80
48579;DHT22;34357;51.948;6.132;2023-05-17T13:41:41;17.60;44.00
48579;DHT22;34357;51.948;6.132;2023-05-17T13:44:07;17.50;40.80
48579;DHT22;34357;51.948;6.132;2023-05-17T13:46:33;17.60;42.80
48579;DHT22;34357;51.948;6.132;2023-05-17T13:48:59;17.70;42.50
48579;DHT22;34357;51.948;6.132;2023-05-17T13:51:25;17.80;41.10
48579;DHT22;34357;51.948;6.132;2023-05-17T13:53:51;17.70;41.20
48579;DHT22;34357;51.948;6.132;2023-05-17T13:56:17;17.70;41.30
48579;DHT22;34357;51.948;6.132;2023-05-17T13:58:43;17.60;41.60
48579;DHT22;34357;51.948;6.132;2023-05-17T14:01:09;17.60;42.30
48579;DHT22;34357;51.948;6.132;2023-05-17T14:03:35;17.60;42.70
48579;DHT22;34357;51.948;6.132;2023-05-17T14:06:03;17.60;44.30
48579;DHT22;34357;51.948;6.132;2023-05-17T14:08:29;17.50;40.90
48579;DHT22;34357;51.948;6.132;2023-05-17T14:10:54;17.30;42.20
48579;DHT22;34357;51.948;6.132;2023-05-17T14:13:21;17.40;42.50
48579;DHT22;34357;51.948;6.132;2023-05-17T14:15:46;17.30;42.40
48579;DHT22;34357;51.948;6.132;2023-05-17T14:18:12;17.50;41.90
48579;DHT22;34357;51.948;6.132;2023-05-17T14:20:38;17.40;42.00
48579;DHT22;34357;51.948;6.132;2023-05-17T14:23:04;17.30;41.80
48579;DHT22;34357;51.948;6.132;2023-05-17T14:25:31;17.20;41.70
48579;DHT22;34357;51.948;6.132;2023-05-17T14:27:57;17.30;42.10
48579;DHT22;34357;51.948;6.132;2023-05-17T14:30:23;17.20;44.00
48579;DHT22;34357;51.948;6.132;2023-05-17T14:32:49;17.10;43.00
48579;DHT22;34357;51.948;6.132;2023-05-17T14:35:15;17.20;43.60
48579;DHT22;34357;51.948;6.132;2023-05-17T14:37:42;17.40;44.00
48579;DHT22;34357;51.948;6.132;2023-05-17T14:40:08;17.10;44.10
48579;DHT22;34357;51.948;6.132;2023-05-17T14:42:34;16.90;42.50
48579;DHT22;34357;51.948;6.132;2023-05-17T14:45:00;17.00;42.60
48579;DHT22;34357;51.948;6.132;2023-05-17T14:47:26;17.00;41.70
48579;DHT22;34357;51.948;6.132;2023-05-17T14:49:52;17.10;43.20
48579;DHT22;34357;51.948;6.132;2023-05-17T14:52:17;17.00;42.10
48579;DHT22;34357;51.948;6.132;2023-05-17T14:54:43;17.00;43.20
48579;DHT22;34357;51.948;6.132;2023-05-17T14:57:09;16.90;42.60
48579;DHT22;34357;51.948;6.132;2023-05-17T14:59:36;16.90;43.10
48579;DHT22;34357;51.948;6.132;2023-05-17T15:02:03;17.10;44.10
48579;DHT22;34357;51.948;6.132;2023-05-17T15:04:29;16.90;43.50
48579;DHT22;34357;51.948;6.132;2023-05-17T15:06:55;17.00;42.80
48579;DHT22;34357;51.948;6.132;2023-05-17T15:09:22;17.10;43.00
48579;DHT22;34357;51.948;6.132;2023-05-17T15:11:48;17.20;45.30
48579;DHT22;34357;51.948;6.132;2023-05-17T15:14:18;16.90;43.60
48579;DHT22;34357;51.948;6.132;2023-05-17T15:16:46;16.70;43.80
48579;DHT22;34357;51.948;6.132;2023-05-17T15:19:13;16.90;43.80
48579;DHT22;34357;51.948;6.132;2023-05-17T15:21:39;17.00;44.70
48579;DHT22;34357;51.948;6.132;2023-05-17T15:24:05;17.00;43.00
48579;DHT22;34357;51.948;6.132;2023-05-17T15:26:31;16.90;43.20
48579;DHT22;34357;51.948;6.132;2023-05-17T15:28:57;16.90;43.00
48579;DHT22;34357;51.948;6.132;2023-05-17T15:31:23;16.70;44.80
48579;DHT22;34357;51.948;6.132;2023-05-17T15:33:49;16.80;44.20
48579;DHT22;34357;51.948;6.132;2023-05-17T15:36:15;16.70;43.90
48579;DHT22;34357;51.948;6.132;2023-05-17T15:38:41;16.80;44.60
48579;DHT22;34357;51.948;6.132;2023-05-17T15:41:10;16.90;43.30
48579;DHT22;34357;51.948;6.132;2023-05-17T15:43:37;16.90;43.40
48579;DHT22;34357;51.948;6.132;2023-05-17T15:46:03;17.10;43.30
48579;DHT22;34357;51.948;6.132;2023-05-17T15:48:28;16.90;43.80
48579;DHT22;34357;51.948;6.132;2023-05-17T15:50:55;16.80;43.60
48579;DHT22;34357;51.948;6.132;2023-05-17T15:53:21;16.50;43.30
48579;DHT22;34357;51.948;6.132;2023-05-17T15:55:47;16.50;44.00
48579;DHT22;34357;51.948;6.132;2023-05-17T15:58:20;16.60;43.60
48579;DHT22;34357;51.948;6.132;2023-05-17T16:00:46;16.60;43.80
48579;DHT22;34357;51.948;6.132;2023-05-17T16:03:13;16.40;43.50
48579;DHT22;34357;51.948;6.132;2023-05-17T16:05:39;16.60;44.00
48579;DHT22;34357;51.948;6.132;2023-05-17T16:08:07;16.60;43.40
48579;DHT22;34357;51.948;6.132;2023-05-17T16:10:37;16.40;43.70
48579;DHT22;34357;51.948;6.132;2023-05-17T16:13:04;16.40;43.30